Aviation Digital Data Service (ADDS)

Output produced by METARs form (1754 UTC 01 March 2017)
found at http://aviationweather.gov/adds/metars/
 
KJFK 011726Z 0118/0224 20010KT 6SM BR BKN015 
     FM012100 22015G23KT 5SM BR VCTS BKN025CB 
     FM020000 22018G27KT P6SM BKN050 
     FM020700 25020G30KT P6SM SCT050 
     FM021100 28024G34KT P6SM SCT045 
     FM021400 29024G38KT P6SM SCT045